Time;durP1;ratioP1;P1;durP2;ratioP2;P2;SDS_P1;SDS_P2;PMS_P1;PMS_P2;Temp;Humidity;BMP_temperature;BMP_pressure;BME280_temperature;BME280_humidity;BME280_pressure;Samples;Min_cycle;Max_cycle;Signal;HPM_P1;HPM_P2
2021/07/23 00:01:21;;;;;;;13.07;10.40;;;;;;;20.63;70.91;99508.91;5114059;28;20484;-74
2021/07/23 00:03:48;;;;;;;11.90;10.60;;;;;;;20.51;71.65;99502.78;5114191;28;20461;-72
2021/07/23 00:06:15;;;;;;;12.50;9.00;;;;;;;20.53;71.96;99508.06;5114410;28;20429;-72
2021/07/23 00:08:42;;;;;;;13.53;10.03;;;;;;;20.33;72.84;99508.22;5114255;28;20431;-74
2021/07/23 00:11:08;;;;;;;21.90;9.87;;;;;;;20.13;73.73;99512.09;5114525;28;20906;-73
2021/07/23 00:13:36;;;;;;;10.93;9.83;;;;;;;19.91;74.99;99505.16;5113993;28;20528;-74
2021/07/23 00:16:03;;;;;;;11.73;10.07;;;;;;;19.70;76.24;99503.53;5114139;28;20417;-73
2021/07/23 00:18:29;;;;;;;12.43;10.00;;;;;;;19.69;76.48;99507.25;5114323;28;20841;-73
2021/07/23 00:20:56;;;;;;;11.67;9.77;;;;;;;19.81;75.85;99512.53;5114177;28;20436;-73
2021/07/23 00:23:23;;;;;;;13.10;9.40;;;;;;;19.90;75.46;99509.78;5114105;28;20513;-73
2021/07/23 00:25:49;;;;;;;12.10;9.33;;;;;;;20.07;74.40;99504.50;5114139;28;20440;-73
2021/07/23 00:28:16;;;;;;;12.80;9.77;;;;;;;20.05;74.39;99501.91;5113811;28;20506;-73
2021/07/23 00:30:44;;;;;;;12.03;9.20;;;;;;;20.08;74.16;99508.94;5113910;28;20421;-73
2021/07/23 00:33:11;;;;;;;14.70;10.53;;;;;;;20.03;74.33;99511.28;5114177;28;20443;-73
2021/07/23 00:35:37;;;;;;;11.37;9.20;;;;;;;19.79;75.53;99507.22;5114092;28;20796;-73
2021/07/23 00:38:05;;;;;;;11.37;9.80;;;;;;;19.50;76.83;99494.50;5114256;28;20434;-74
2021/07/23 00:40:33;;;;;;;13.40;9.90;;;;;;;19.41;77.50;99502.75;5114075;28;20523;-74
2021/07/23 00:43:00;;;;;;;12.13;9.70;;;;;;;19.60;76.81;99502.66;5114207;28;20500;-74
2021/07/23 00:45:27;;;;;;;11.45;9.20;;;;;;;19.53;77.10;99498.81;5113963;28;20421;-74
2021/07/23 00:47:55;;;;;;;11.07;9.20;;;;;;;19.43;77.53;99500.72;5113567;28;20259;-73
2021/07/23 00:50:22;;;;;;;12.32;9.85;;;;;;;19.57;76.74;99497.50;5113991;28;20433;-74
2021/07/23 00:52:50;;;;;;;11.95;9.25;;;;;;;19.42;77.49;99501.72;5113588;28;20274;-73
2021/07/23 00:55:17;;;;;;;11.90;10.70;;;;;;;19.31;78.12;99484.53;5113579;28;20198;-73
2021/07/23 00:57:44;;;;;;;12.00;9.80;;;;;;;19.46;77.42;99495.81;5113959;28;20278;-74
2021/07/23 01:00:12;;;;;;;11.40;9.80;;;;;;;19.43;77.17;99495.25;5113305;28;20436;-73
2021/07/23 01:02:39;;;;;;;12.60;9.50;;;;;;;19.34;77.81;99497.88;5113754;28;20842;-73
2021/07/23 01:05:07;;;;;;;11.03;9.60;;;;;;;19.12;79.27;99490.00;5113126;28;20572;-73
2021/07/23 01:07:35;;;;;;;10.30;9.20;;;;;;;19.16;78.98;99488.72;5113238;28;20937;-72
2021/07/23 01:10:02;;;;;;;14.25;10.18;;;;;;;19.24;78.38;99485.25;5113266;28;20225;-74
2021/07/23 01:12:29;;;;;;;11.38;9.80;;;;;;;19.17;78.82;99493.16;5113671;28;20194;-74
2021/07/23 01:14:58;;;;;;;11.77;10.52;;;;;;;19.05;79.35;99488.88;5113605;28;20192;-74
2021/07/23 01:17:24;;;;;;;12.65;9.82;;;;;;;19.05;79.91;99487.00;5113239;28;20248;-73
2021/07/23 01:19:56;;;;;;;15.02;9.50;;;;;;;19.26;78.42;99488.69;5113519;28;20273;-73
2021/07/23 01:22:27;;;;;;;11.18;9.95;;;;;;;19.20;78.80;99481.06;5113077;28;20213;-74
2021/07/23 01:24:56;;;;;;;11.88;8.90;;;;;;;19.14;78.89;99477.09;5113348;28;20207;-73
2021/07/23 01:27:23;;;;;;;9.05;8.13;;;;;;;19.03;79.53;99478.09;5113650;28;20286;-74
2021/07/23 01:29:50;;;;;;;12.18;10.13;;;;;;;19.28;77.87;99473.88;5113164;28;20203;-73
2021/07/23 01:32:16;;;;;;;11.32;9.10;;;;;;;19.19;78.30;99476.66;5113212;28;20274;-74
2021/07/23 01:34:43;;;;;;;10.93;8.98;;;;;;;19.17;77.80;99474.06;5113520;28;20198;-73
2021/07/23 01:37:09;;;;;;;12.20;9.70;;;;;;;19.04;78.83;99481.69;5113478;28;20194;-73
2021/07/23 01:39:36;;;;;;;10.00;8.85;;;;;;;19.11;78.22;99480.97;5113402;28;20208;-74
2021/07/23 01:42:06;;;;;;;10.70;9.60;;;;;;;18.99;79.04;99470.34;5113371;28;20683;-73
2021/07/23 01:44:32;;;;;;;9.68;8.70;;;;;;;18.87;79.28;99472.38;5113001;28;20186;-73
2021/07/23 01:46:59;;;;;;;11.48;9.23;;;;;;;18.88;79.24;99474.97;5113141;28;20293;-72
2021/07/23 01:49:25;;;;;;;14.32;10.00;;;;;;;18.83;79.73;99471.81;5113045;28;20193;-73
2021/07/23 01:51:52;;;;;;;10.73;9.20;;;;;;;18.73;80.53;99466.34;5116300;28;20558;-72
2021/07/23 01:54:18;;;;;;;12.43;10.68;;;;;;;18.65;81.40;99468.06;5116734;28;20193;-73
2021/07/23 01:56:47;;;;;;;13.20;9.77;;;;;;;18.74;80.78;99464.47;5116778;28;20190;-73
2021/07/23 01:59:15;;;;;;;10.82;9.13;;;;;;;18.63;80.92;99460.03;5116582;28;20647;-74
2021/07/23 02:01:41;;;;;;;10.40;8.77;;;;;;;18.69;81.14;99464.03;5115546;28;20296;-74
2021/07/23 02:04:08;;;;;;;13.05;10.38;;;;;;;18.63;81.14;99468.22;5116686;28;20321;-73
2021/07/23 02:06:35;;;;;;;12.98;10.23;;;;;;;18.45;82.28;99465.34;5116775;28;20285;-74
2021/07/23 02:09:01;;;;;;;11.30;9.52;;;;;;;18.42;82.65;99457.44;5116687;28;20280;-74
2021/07/23 02:11:30;;;;;;;10.90;9.65;;;;;;;18.55;81.92;99452.56;5116930;28;20635;-73
2021/07/23 02:13:57;;;;;;;14.75;10.10;;;;;;;18.66;80.99;99453.44;5116477;28;20210;-74
2021/07/23 02:16:25;;;;;;;12.25;10.05;;;;;;;18.69;80.54;99453.13;5116518;28;20200;-73
2021/07/23 02:18:52;;;;;;;12.90;9.18;;;;;;;18.67;80.44;99450.53;5116381;28;20201;-74
2021/07/23 02:21:18;;;;;;;10.43;9.18;;;;;;;18.60;80.81;99454.84;5116594;28;20644;-73
2021/07/23 02:23:45;;;;;;;12.30;9.00;;;;;;;18.63;80.68;99448.25;5116413;28;20339;-73
2021/07/23 02:26:17;;;;;;;11.15;9.50;;;;;;;18.57;80.68;99449.72;5116604;28;20206;-73
2021/07/23 02:28:43;;;;;;;14.63;9.77;;;;;;;18.38;81.63;99446.97;5116463;28;20213;-75
2021/07/23 02:31:10;;;;;;;14.02;9.48;;;;;;;18.55;80.86;99444.38;5116233;28;20200;-72
2021/07/23 02:33:38;;;;;;;12.43;10.35;;;;;;;18.46;81.19;99437.06;5116328;28;20215;-74
2021/07/23 02:36:05;;;;;;;12.00;9.65;;;;;;;18.47;80.81;99441.50;5116252;28;20655;-73
2021/07/23 02:38:32;;;;;;;11.18;9.48;;;;;;;18.39;81.73;99449.56;5115928;28;20185;-73
2021/07/23 02:40:59;;;;;;;14.23;9.80;;;;;;;18.35;82.19;99448.13;5116422;28;20304;-74
2021/07/23 02:43:25;;;;;;;10.93;9.30;;;;;;;18.19;82.66;99442.38;5115935;28;20296;-74
2021/07/23 02:45:52;;;;;;;12.10;10.20;;;;;;;18.24;82.93;99440.06;5116218;28;20662;-74
2021/07/23 02:48:19;;;;;;;11.73;10.05;;;;;;;18.39;82.08;99440.53;5115865;28;20312;-73
2021/07/23 02:50:47;;;;;;;14.75;9.38;;;;;;;18.37;82.00;99439.81;5116276;28;20792;-72
2021/07/23 02:53:13;;;;;;;10.73;9.60;;;;;;;18.35;81.97;99431.75;5115529;28;20190;-73
2021/07/23 02:55:40;;;;;;;13.35;10.32;;;;;;;18.24;82.78;99432.75;5115960;28;20209;-74
2021/07/23 02:58:06;;;;;;;11.57;9.18;;;;;;;18.27;82.70;99432.50;5116046;28;20190;-74
2021/07/23 03:00:33;;;;;;;11.98;9.85;;;;;;;18.18;83.04;99430.63;5115918;28;20284;-73
2021/07/23 03:03:03;;;;;;;11.88;9.85;;;;;;;18.09;83.71;99432.31;5114224;28;20205;-74
2021/07/23 03:05:30;;;;;;;12.75;9.93;;;;;;;18.11;83.58;99422.16;5115630;28;20553;-73
2021/07/23 03:07:58;;;;;;;10.95;9.57;;;;;;;18.09;83.68;99432.31;5115552;28;20228;-74
2021/07/23 03:10:24;;;;;;;12.05;10.02;;;;;;;17.88;84.94;99426.97;5115689;28;20272;-72
2021/07/23 03:12:51;;;;;;;14.93;10.02;;;;;;;17.94;84.93;99427.44;5115460;28;20224;-74
2021/07/23 03:15:17;;;;;;;12.77;10.23;;;;;;;17.94;84.89;99430.16;5115435;28;20190;-73
2021/07/23 03:17:44;;;;;;;14.77;10.90;;;;;;;17.94;85.45;99421.97;5115327;28;20217;-73
2021/07/23 03:20:12;;;;;;;15.95;9.60;;;;;;;17.99;84.69;99423.25;5115087;28;20295;-72
2021/07/23 03:22:38;;;;;;;11.25;9.30;;;;;;;18.02;84.48;99419.38;5114813;28;20211;-73
2021/07/23 03:25:08;;;;;;;15.75;10.45;;;;;;;17.80;85.62;99423.22;5115901;28;20715;-74
2021/07/23 03:27:35;;;;;;;12.90;10.07;;;;;;;17.87;85.14;99421.69;5115286;28;20638;-72
2021/07/23 03:30:01;;;;;;;12.50;9.48;;;;;;;17.73;86.23;99422.91;5115213;28;20190;-73
2021/07/23 03:32:28;;;;;;;13.93;10.95;;;;;;;17.74;86.12;99429.19;5115193;28;20213;-74
2021/07/23 03:34:55;;;;;;;12.05;9.85;;;;;;;17.57;86.99;99418.00;5114882;28;20291;-73
2021/07/23 03:37:21;;;;;;;12.98;9.60;;;;;;;17.61;86.97;99413.09;5114709;28;20278;-74
2021/07/23 03:39:48;;;;;;;14.82;10.85;;;;;;;17.60;86.84;99423.16;5114785;28;20272;-72
2021/07/23 03:42:16;;;;;;;11.57;10.15;;;;;;;17.47;87.59;99422.53;5114851;28;20224;-74
2021/07/23 03:44:42;;;;;;;11.65;9.85;;;;;;;17.54;87.79;99420.97;5114441;28;20276;-73
2021/07/23 03:47:09;;;;;;;11.73;10.48;;;;;;;17.41;88.30;99418.50;5114894;28;20195;-73
2021/07/23 03:49:36;;;;;;;12.77;10.15;;;;;;;17.28;89.34;99417.88;5114746;28;20235;-72
2021/07/23 03:52:03;;;;;;;13.32;11.45;;;;;;;17.32;89.50;99415.72;5114328;28;20191;-74
2021/07/23 03:54:29;;;;;;;10.30;9.20;;;;;;;17.30;89.51;99410.44;5114866;28;20194;-73
2021/07/23 03:56:56;;;;;;;11.88;10.38;;;;;;;17.36;88.84;99415.31;5114652;28;20205;-72
2021/07/23 03:59:24;;;;;;;13.55;10.05;;;;;;;17.41;88.11;99410.34;5114806;28;20745;-73
2021/07/23 04:01:50;;;;;;;12.30;10.20;;;;;;;17.34;88.51;99411.00;5114278;28;20287;-74
2021/07/23 04:04:17;;;;;;;12.05;9.93;;;;;;;17.26;88.78;99409.84;5114341;28;20231;-73
2021/07/23 04:06:43;;;;;;;13.30;10.27;;;;;;;17.19;89.37;99414.09;5114271;28;20278;-73
2021/07/23 04:09:10;;;;;;;12.80;10.50;;;;;;;17.19;89.96;99405.94;5114682;28;20201;-73
2021/07/23 04:11:45;;;;;;;10.95;9.70;;;;;;;17.29;89.40;99420.44;5114047;28;20221;-73
2021/07/23 04:14:12;;;;;;;13.50;10.82;;;;;;;17.39;87.96;99409.59;5114041;28;20184;-73
2021/07/23 04:16:40;;;;;;;13.93;10.65;;;;;;;17.53;87.44;99410.22;5114187;28;20223;-74
2021/07/23 04:19:06;;;;;;;12.15;9.93;;;;;;;17.51;86.85;99415.81;5113987;28;20199;-73
2021/07/23 04:21:33;;;;;;;13.73;11.25;;;;;;;17.47;87.42;99412.47;5114549;28;20274;-73
2021/07/23 04:23:59;;;;;;;11.77;9.77;;;;;;;17.44;87.59;99420.94;5114099;28;20226;-74
2021/07/23 04:26:26;;;;;;;12.05;9.80;;;;;;;17.30;87.79;99414.00;5114087;28;20201;-73
2021/07/23 04:28:53;;;;;;;12.50;11.15;;;;;;;17.39;88.07;99414.16;5114143;28;20533;-74
2021/07/23 04:31:19;;;;;;;16.38;10.85;;;;;;;17.42;87.04;99420.22;5114259;28;20188;-73
2021/07/23 04:33:47;;;;;;;15.63;10.88;;;;;;;17.33;87.45;99412.00;5114077;28;20666;-74
2021/07/23 04:36:14;;;;;;;14.10;10.40;;;;;;;17.17;88.78;99416.09;5113561;28;20191;-75
2021/07/23 04:38:40;;;;;;;12.43;10.40;;;;;;;17.41;87.33;99423.94;5113800;28;20200;-73
2021/07/23 04:41:07;;;;;;;12.18;10.30;;;;;;;17.59;86.14;99424.16;5113828;28;20266;-74
2021/07/23 04:43:35;;;;;;;10.98;9.77;;;;;;;17.55;85.85;99419.97;5113670;28;20572;-73
2021/07/23 04:46:02;;;;;;;15.38;11.45;;;;;;;17.63;85.35;99425.56;5113634;28;20189;-73
2021/07/23 04:48:28;;;;;;;17.13;10.98;;;;;;;17.77;84.13;99426.19;5114205;28;20193;-73
2021/07/23 04:50:56;;;;;;;16.58;11.35;;;;;;;17.73;83.97;99428.34;5113268;28;20201;-73
2021/07/23 04:53:23;;;;;;;12.40;9.70;;;;;;;17.75;84.35;99428.19;5113763;28;20193;-74
2021/07/23 04:55:52;;;;;;;15.07;11.30;;;;;;;17.87;83.42;99427.97;5113695;28;20223;-74
2021/07/23 04:58:19;;;;;;;12.25;9.80;;;;;;;17.82;83.44;99429.38;5114036;28;20191;-73
2021/07/23 05:00:46;;;;;;;13.90;10.50;;;;;;;17.79;83.65;99435.94;5113889;28;20191;-73
2021/07/23 05:03:12;;;;;;;12.98;10.75;;;;;;;17.92;83.15;99430.28;5113672;28;20226;-75
2021/07/23 05:05:41;;;;;;;13.30;10.18;;;;;;;17.70;83.75;99437.66;5113678;28;20191;-73
2021/07/23 05:08:11;;;;;;;13.90;11.05;;;;;;;17.77;83.81;99434.34;5113822;28;20511;-73
2021/07/23 05:10:40;;;;;;;13.25;10.60;;;;;;;17.89;83.46;99436.88;5113837;28;20240;-73
2021/07/23 05:13:07;;;;;;;12.32;11.02;;;;;;;17.85;83.11;99437.28;5113601;28;20239;-74
2021/07/23 05:15:34;;;;;;;13.75;11.05;;;;;;;17.99;82.62;99434.16;5120300;28;20193;-73
2021/07/23 05:18:01;;;;;;;12.10;10.80;;;;;;;18.05;81.76;99436.34;5134081;28;20203;-74
2021/07/23 05:20:27;;;;;;;14.05;10.55;;;;;;;17.92;82.63;99436.59;5134612;28;20611;-74
2021/07/23 05:22:54;;;;;;;15.20;11.63;;;;;;;17.93;82.76;99437.44;5134471;28;20218;-73
2021/07/23 05:25:22;;;;;;;14.02;11.50;;;;;;;18.26;81.35;99435.34;5134883;27;20200;-74
2021/07/23 05:27:49;;;;;;;17.70;11.90;;;;;;;18.45;80.01;99435.38;5119394;27;20235;-74
2021/07/23 05:30:16;;;;;;;15.23;11.40;;;;;;;18.55;79.27;99438.09;5138250;27;20185;-74
2021/07/23 05:32:42;;;;;;;14.25;11.13;;;;;;;18.60;78.25;99437.66;5138218;27;20200;-74
2021/07/23 05:35:10;;;;;;;14.48;12.30;;;;;;;18.61;78.43;99436.63;5138229;27;20269;-74
2021/07/23 05:37:36;;;;;;;14.50;11.40;;;;;;;18.79;77.37;99434.94;5138594;27;20196;-72
2021/07/23 05:40:03;;;;;;;14.00;11.80;;;;;;;18.95;76.62;99435.19;5138282;27;20236;-74
2021/07/23 05:42:32;;;;;;;17.15;11.90;;;;;;;19.07;75.75;99433.16;5137978;27;20269;-74
2021/07/23 05:44:58;;;;;;;15.07;11.20;;;;;;;19.18;75.10;99434.84;5137902;27;20276;-74
2021/07/23 05:47:25;;;;;;;13.88;11.15;;;;;;;19.57;72.95;99432.81;5122551;27;20285;-74
2021/07/23 05:49:52;;;;;;;14.65;11.25;;;;;;;19.81;71.40;99436.91;5117073;28;20269;-73
2021/07/23 05:52:18;;;;;;;12.40;11.10;;;;;;;19.87;70.88;99433.56;5117342;28;20273;-73
2021/07/23 05:54:45;;;;;;;12.25;10.40;;;;;;;20.03;70.44;99432.03;5117260;28;20198;-73
2021/07/23 05:57:12;;;;;;;13.02;10.43;;;;;;;20.02;70.59;99422.97;5117398;28;20193;-73
2021/07/23 05:59:40;;;;;;;15.48;10.57;;;;;;;20.07;70.00;99422.50;5116940;28;20197;-74
2021/07/23 06:02:07;;;;;;;12.20;10.35;;;;;;;20.14;69.95;99432.66;5116689;28;20210;-72
2021/07/23 06:04:34;;;;;;;11.90;10.23;;;;;;;20.47;68.31;99423.94;5116638;28;20233;-73
2021/07/23 06:07:04;;;;;;;10.83;9.53;;;;;;;20.68;67.55;99423.63;5116405;28;20191;-73
2021/07/23 06:09:31;;;;;;;11.33;9.50;;;;;;;20.92;66.52;99425.72;5116288;28;20508;-73
2021/07/23 06:11:57;;;;;;;12.17;10.87;;;;;;;21.06;65.67;99424.28;5116582;28;20807;-73
2021/07/23 06:14:24;;;;;;;12.00;9.70;;;;;;;20.86;66.16;99420.88;5116486;28;20452;-72
2021/07/23 06:16:55;;;;;;;13.63;10.83;;;;;;;20.96;66.38;99427.09;5116275;28;20429;-73
2021/07/23 06:19:21;;;;;;;14.50;10.43;;;;;;;21.10;65.14;99420.16;5116391;28;20461;-73
2021/07/23 06:21:48;;;;;;;12.27;8.73;;;;;;;21.28;64.81;99415.50;5116678;28;20954;-73
2021/07/23 06:24:15;;;;;;;10.63;9.53;;;;;;;21.41;64.14;99423.28;5115750;28;20603;-73
2021/07/23 06:26:43;;;;;;;13.73;10.70;;;;;;;21.49;63.59;99422.50;5115683;28;20433;-73
2021/07/23 06:29:09;;;;;;;16.43;9.70;;;;;;;21.69;62.59;99417.63;5115602;28;20478;-72
2021/07/23 06:31:36;;;;;;;13.67;11.33;;;;;;;21.41;64.26;99413.22;5115683;28;20473;-73
2021/07/23 06:34:04;;;;;;;12.57;9.27;;;;;;;21.36;63.67;99426.50;5115730;28;20508;-73
2021/07/23 06:36:32;;;;;;;10.43;9.37;;;;;;;21.36;63.47;99421.03;5115768;28;20842;-72
2021/07/23 06:38:58;;;;;;;13.63;9.57;;;;;;;21.56;62.80;99420.81;5115752;28;20437;-73
2021/07/23 06:41:25;;;;;;;11.90;8.73;;;;;;;21.42;62.59;99423.16;5115544;28;20507;-73
2021/07/23 06:43:52;;;;;;;13.03;9.20;;;;;;;21.60;62.16;99420.31;5115234;28;20471;-73
2021/07/23 06:46:18;;;;;;;13.27;9.67;;;;;;;21.76;61.52;99416.78;5115810;28;20487;-72
2021/07/23 06:48:45;;;;;;;11.97;9.00;;;;;;;21.82;61.37;99409.78;5115992;28;20880;-74
2021/07/23 06:51:13;;;;;;;10.97;9.10;;;;;;;21.90;61.25;99406.22;5115380;28;20452;-74
2021/07/23 06:53:40;;;;;;;9.77;8.77;;;;;;;21.80;61.49;99411.84;5115998;28;20417;-72
2021/07/23 06:56:07;;;;;;;10.77;7.43;;;;;;;21.90;60.79;99414.44;5115678;28;20414;-74
2021/07/23 06:58:34;;;;;;;23.43;9.43;;;;;;;21.77;61.87;99413.00;5115957;28;20441;-73
2021/07/23 07:01:06;;;;;;;11.63;9.10;;;;;;;22.16;60.35;99403.34;5115881;28;20453;-74
2021/07/23 07:03:33;;;;;;;11.20;9.20;;;;;;;22.31;59.62;99409.94;5115691;28;21037;-73
2021/07/23 07:06:00;;;;;;;13.07;9.00;;;;;;;22.71;58.40;99412.88;5115916;28;20425;-74
2021/07/23 07:08:28;;;;;;;9.63;8.10;;;;;;;22.66;58.00;99410.66;5115239;28;20520;-73
2021/07/23 07:10:54;;;;;;;10.00;8.10;;;;;;;22.78;57.08;99419.41;5115666;28;20425;-74
2021/07/23 07:13:21;;;;;;;12.13;8.00;;;;;;;22.91;56.84;99414.25;5115642;28;20483;-74
2021/07/23 07:15:47;;;;;;;11.30;8.40;;;;;;;23.02;56.72;99419.41;5115352;28;20512;-73
2021/07/23 07:18:14;;;;;;;10.07;8.83;;;;;;;23.15;55.82;99413.38;5115279;28;20492;-73
2021/07/23 07:20:41;;;;;;;10.17;9.10;;;;;;;23.17;56.11;99413.19;5115548;28;20532;-74
2021/07/23 07:23:07;;;;;;;10.33;8.27;;;;;;;23.11;56.04;99409.28;5115115;28;20507;-74
2021/07/23 07:25:35;;;;;;;8.93;7.83;;;;;;;23.24;55.14;99401.31;5114900;28;20523;-73
2021/07/23 07:28:02;;;;;;;10.10;8.00;;;;;;;23.49;54.17;99410.38;5115012;28;20524;-74
2021/07/23 07:30:29;;;;;;;9.30;8.30;;;;;;;23.48;55.00;99403.16;5115285;28;20437;-74
2021/07/23 07:32:56;;;;;;;10.70;8.30;;;;;;;23.68;54.22;99406.34;5115151;28;20885;-74
2021/07/23 07:35:23;;;;;;;8.70;7.67;;;;;;;23.85;53.49;99403.53;5114577;28;20443;-73
2021/07/23 07:37:50;;;;;;;11.20;7.77;;;;;;;23.82;53.36;99406.66;5114684;28;20840;-73
2021/07/23 07:40:16;;;;;;;8.40;7.50;;;;;;;23.33;54.50;99404.91;5115271;28;20442;-72
2021/07/23 07:42:44;;;;;;;9.30;7.53;;;;;;;23.44;54.33;99403.69;5114961;28;20455;-74
2021/07/23 07:45:12;;;;;;;13.03;7.90;;;;;;;23.56;53.78;99404.16;5115119;28;20461;-75
2021/07/23 07:47:39;;;;;;;9.97;8.10;;;;;;;24.02;52.78;99393.31;5114711;28;20482;-73
2021/07/23 07:50:06;;;;;;;11.30;7.50;;;;;;;23.83;52.63;99406.47;5114264;28;20526;-73
2021/07/23 07:52:33;;;;;;;9.30;6.70;;;;;;;24.06;52.16;99397.41;5114790;28;20444;-73
2021/07/23 07:54:59;;;;;;;9.40;7.00;;;;;;;24.04;52.30;99392.09;5114596;28;20531;-73
2021/07/23 07:57:26;;;;;;;10.87;7.40;;;;;;;23.94;52.88;99402.47;5114406;28;20429;-73
2021/07/23 07:59:54;;;;;;;9.80;6.97;;;;;;;24.02;52.25;99398.81;5114269;28;20483;-73
2021/07/23 08:02:21;;;;;;;9.10;7.53;;;;;;;24.34;51.49;99392.25;5114332;28;20768;-73
2021/07/23 08:04:47;;;;;;;8.20;7.33;;;;;;;24.06;51.56;99395.53;5114003;28;20489;-73
2021/07/23 08:07:19;;;;;;;14.30;7.57;;;;;;;24.24;51.24;99386.13;5114639;28;20886;-73
2021/07/23 08:09:51;;;;;;;7.70;6.90;;;;;;;24.24;51.57;99384.25;5114466;28;20903;-73
2021/07/23 08:12:18;;;;;;;13.73;7.97;;;;;;;24.33;51.68;99385.91;5114508;28;20768;-74
2021/07/23 08:14:44;;;;;;;8.80;7.93;;;;;;;24.31;51.38;99379.72;5114457;28;20424;-73
2021/07/23 08:17:13;;;;;;;13.93;9.20;;;;;;;24.39;51.33;99375.19;5114409;28;20843;-72
2021/07/23 08:19:39;;;;;;;8.97;8.07;;;;;;;24.70;50.57;99373.22;5113993;28;20459;-73
2021/07/23 08:22:06;;;;;;;9.30;8.30;;;;;;;24.89;50.01;99377.34;5114140;28;20430;-73
2021/07/23 08:24:33;;;;;;;7.50;6.80;;;;;;;25.04;48.50;99369.13;5114034;28;20488;-74
2021/07/23 08:27:01;;;;;;;9.23;7.43;;;;;;;24.91;48.83;99368.91;5113989;28;20532;-73
2021/07/23 08:29:28;;;;;;;9.63;8.60;;;;;;;25.07;48.48;99368.72;5114069;28;20428;-73
2021/07/23 08:31:54;;;;;;;9.40;7.83;;;;;;;25.33;47.88;99372.97;5113879;28;20954;-73
2021/07/23 08:34:22;;;;;;;9.73;7.57;;;;;;;25.71;46.52;99375.59;5113860;28;20744;-73
2021/07/23 08:36:49;;;;;;;11.20;8.80;;;;;;;25.90;46.14;99369.50;5113863;28;20425;-72
2021/07/23 08:39:15;;;;;;;9.20;7.60;;;;;;;25.65;46.19;99368.09;5113719;28;20437;-73
2021/07/23 08:41:42;;;;;;;9.10;7.33;;;;;;;25.68;46.13;99356.69;5113758;28;20899;-73
2021/07/23 08:44:09;;;;;;;7.50;6.80;;;;;;;26.00;44.78;99360.91;5113555;28;20514;-73
2021/07/23 08:46:35;;;;;;;8.20;7.03;;;;;;;25.61;45.24;99361.25;5113583;28;20432;-73
2021/07/23 08:49:02;;;;;;;11.40;7.33;;;;;;;25.10;46.53;99365.63;5113334;28;20441;-73
2021/07/23 08:51:30;;;;;;;10.90;7.63;;;;;;;25.69;45.43;99366.66;5113433;28;20422;-73
2021/07/23 08:53:57;;;;;;;7.93;7.13;;;;;;;25.68;44.94;99357.53;5113923;28;20422;-73
2021/07/23 08:56:23;;;;;;;9.53;7.80;;;;;;;25.64;45.14;99364.47;5113505;28;20453;-74
2021/07/23 08:58:50;;;;;;;11.30;8.70;;;;;;;25.80;44.73;99360.63;5113449;28;20448;-73
2021/07/23 09:01:16;;;;;;;8.60;7.70;;;;;;;26.25;43.75;99364.16;5115038;28;20516;-75
2021/07/23 09:03:43;;;;;;;9.20;6.80;;;;;;;26.09;43.46;99356.97;5117501;28;20476;-73
2021/07/23 09:06:17;;;;;;;10.30;6.90;;;;;;;26.09;43.37;99354.22;5117572;28;20523;-72
2021/07/23 09:08:49;;;;;;;16.00;8.50;;;;;;;25.79;43.21;99358.94;5117737;28;20439;-73
2021/07/23 09:11:25;;;;;;;9.40;7.67;;;;;;;26.24;42.69;99358.84;5117539;28;20790;-74
2021/07/23 09:13:51;;;;;;;8.33;7.43;;;;;;;26.27;41.92;99361.19;5117134;28;20413;-73
2021/07/23 09:16:25;;;;;;;11.27;6.77;;;;;;;26.32;42.42;99353.19;5117291;28;20452;-73
2021/07/23 09:19:06;;;;;;;8.23;7.30;;;;;;;26.55;40.92;99353.88;5117396;28;20444;-74
2021/07/23 09:21:36;;;;;;;9.23;8.33;;;;;;;26.80;41.00;99362.59;5117512;28;20448;-72
2021/07/23 09:24:05;;;;;;;9.53;8.63;;;;;;;26.94;41.38;99362.69;5116975;28;20537;-73
2021/07/23 09:26:42;;;;;;;9.63;8.10;;;;;;;27.28;39.65;99356.38;5117002;28;20441;-73
2021/07/23 09:29:09;;;;;;;9.57;8.43;;;;;;;27.38;40.36;99350.47;5117649;28;20431;-74
2021/07/23 09:31:36;;;;;;;9.40;8.40;;;;;;;26.84;40.37;99351.97;5117149;28;20433;-74
2021/07/23 09:34:04;;;;;;;9.73;8.17;;;;;;;26.59;40.88;99357.06;5117267;28;20433;-74
2021/07/23 09:36:32;;;;;;;10.00;8.63;;;;;;;26.99;40.06;99349.13;5117021;28;20432;-74
2021/07/23 09:39:02;;;;;;;9.23;8.33;;;;;;;26.92;39.38;99342.69;5117156;28;20449;-74
2021/07/23 09:41:32;;;;;;;13.60;9.90;;;;;;;26.97;38.73;99337.41;5116600;28;20445;-73
2021/07/23 09:44:01;;;;;;;9.70;8.70;;;;;;;26.91;40.21;99330.81;5116274;28;20759;-74
2021/07/23 09:46:30;;;;;;;9.90;8.60;;;;;;;26.89;40.20;99327.38;5116429;28;20443;-74
2021/07/23 09:49:00;;;;;;;8.60;7.70;;;;;;;26.82;40.20;99313.53;5116826;28;20445;-74
2021/07/23 09:51:26;;;;;;;9.50;8.50;;;;;;;26.84;40.70;99313.31;5116443;28;20448;-74
2021/07/23 09:53:54;;;;;;;11.53;9.80;;;;;;;26.95;40.12;99309.97;5116556;28;20425;-74
2021/07/23 09:56:23;;;;;;;10.57;9.43;;;;;;;26.96;40.02;99302.56;5116480;28;20440;-74
2021/07/23 09:58:56;;;;;;;10.67;9.57;;;;;;;27.26;39.90;99297.66;5116821;28;20527;-73
2021/07/23 10:01:30;;;;;;;10.40;9.30;;;;;;;27.49;39.41;99297.34;5116487;28;20465;-73
2021/07/23 10:04:00;;;;;;;14.70;9.30;;;;;;;27.44;38.85;99289.66;5116562;28;20465;-73
2021/07/23 10:06:34;;;;;;;11.70;10.50;;;;;;;27.36;39.45;99281.56;5116585;28;20474;-74
2021/07/23 10:09:09;;;;;;;9.53;8.53;;;;;;;27.13;39.43;99278.22;5116258;28;20842;-75
2021/07/23 10:11:39;;;;;;;10.73;9.63;;;;;;;27.15;39.74;99273.34;5115961;28;20505;-74
2021/07/23 10:14:10;;;;;;;10.97;9.80;;;;;;;26.77;39.52;99279.28;5115535;28;20453;-74
2021/07/23 10:16:38;;;;;;;9.57;8.57;;;;;;;27.03;39.76;99273.91;5115969;28;20513;-73
2021/07/23 10:19:06;;;;;;;10.60;9.50;;;;;;;27.17;39.21;99279.53;5116891;28;20433;-73
2021/07/23 10:21:33;;;;;;;11.87;8.80;;;;;;;27.26;38.02;99278.31;5116129;28;20425;-75
2021/07/23 10:24:01;;;;;;;10.07;9.13;;;;;;;27.70;36.65;99278.91;5116110;28;20470;-74
2021/07/23 10:26:29;;;;;;;10.27;9.27;;;;;;;27.89;37.36;99272.63;5115711;28;20433;-74
2021/07/23 10:29:01;;;;;;;10.63;9.63;;;;;;;27.71;37.75;99275.09;5115418;28;20436;-74
2021/07/23 10:31:46;;;;;;;11.37;10.13;;;;;;;27.75;37.51;99263.41;5115810;28;20445;-74
2021/07/23 10:34:31;;;;;;;11.87;10.67;;;;;;;27.65;36.20;99266.56;5117091;28;20425;-74
2021/07/23 10:36:58;;;;;;;10.93;9.87;;;;;;;27.08;37.68;99265.00;5116212;28;20432;-73
2021/07/23 10:39:25;;;;;;;9.60;8.50;;;;;;;27.47;36.91;99255.22;5116558;28;20527;-74
2021/07/23 10:42:27;;;;;;;11.07;9.90;;;;;;;27.95;36.93;99249.66;5116171;28;20441;-74
2021/07/23 10:44:54;;;;;;;10.50;9.50;;;;;;;27.97;36.78;99244.78;5115931;28;20461;-74
2021/07/23 10:47:39;;;;;;;10.97;9.27;;;;;;;27.67;37.02;99247.00;5116003;28;20432;-75
2021/07/23 10:50:08;;;;;;;14.77;9.40;;;;;;;27.73;37.74;99246.19;5116170;28;20882;-74
2021/07/23 10:52:36;;;;;;;14.53;12.17;;;;;;;28.09;37.37;99235.84;5115881;28;20533;-75
2021/07/23 10:55:11;;;;;;;10.90;9.87;;;;;;;27.67;37.99;99236.78;5115631;28;20479;-74
2021/07/23 10:57:38;;;;;;;11.23;9.93;;;;;;;27.81;36.86;99236.81;5116820;28;20459;-75
2021/07/23 11:00:06;;;;;;;10.10;9.20;;;;;;;27.31;37.30;99228.78;5115939;28;20445;-74
2021/07/23 11:02:45;;;;;;;10.70;9.70;;;;;;;27.65;37.50;99232.53;5108641;28;20437;-74
2021/07/23 11:05:20;;;;;;;10.30;9.27;;;;;;;27.58;37.16;99226.97;5115517;28;20545;-75
2021/07/23 11:07:47;;;;;;;9.47;8.53;;;;;;;27.36;38.26;99223.53;5115537;28;20474;-75
2021/07/23 11:10:20;;;;;;;10.40;9.40;;;;;;;27.47;37.21;99224.81;5115578;28;20453;-75
2021/07/23 11:12:47;;;;;;;10.30;9.00;;;;;;;27.26;38.05;99219.44;5115846;28;20468;-74
2021/07/23 11:15:14;;;;;;;11.57;10.20;;;;;;;27.71;38.05;99225.31;5115714;28;20428;-73
2021/07/23 11:17:54;;;;;;;10.97;9.87;;;;;;;27.88;38.38;99220.25;5115805;28;20793;-74
2021/07/23 11:20:38;;;;;;;10.10;9.10;;;;;;;27.45;38.45;99222.28;5115103;28;20504;-74
2021/07/23 11:23:06;;;;;;;11.30;9.23;;;;;;;27.27;38.84;99207.31;5114417;28;20451;-74
2021/07/23 11:25:34;;;;;;;15.30;9.73;;;;;;;27.75;38.29;99205.34;5115796;28;20473;-75
2021/07/23 11:28:02;;;;;;;10.30;9.30;;;;;;;27.91;38.48;99198.56;5115922;28;20526;-75